Time;durP1;ratioP1;P1;durP2;ratioP2;P2;SDS_P1;SDS_P2;PMS_P1;PMS_P2;Temp;Humidity;BMP_temperature;BMP_pressure;BME280_temperature;BME280_humidity;BME280_pressure;Samples;Min_cycle;Max_cycle;Signal;HPM_P1;HPM_P2
2023/11/10 12:30:22;;;;;;;11.20;7.20;;;;;;;12.33;54.10;94287.75;4236878;28;20495;-72
2023/11/10 12:32:30;;;;;;;10.48;6.32;;;;;;;12.14;54.51;94284.63;4103477;28;3474635;-73
2023/11/10 12:34:35;;;;;;;9.05;7.00;;;;;;;12.28;54.71;94278.59;4204904;28;20056;-72
2023/11/10 12:36:38;;;;;;;8.65;6.47;;;;;;;12.47;54.44;94268.53;4211965;28;20131;-73
2023/11/10 12:38:50;;;;;;;8.07;5.68;;;;;;;12.62;53.09;94255.41;4209041;28;20047;-74
2023/11/10 12:40:53;;;;;;;7.22;5.18;;;;;;;12.72;53.43;94265.66;4212081;28;20495;-73
2023/11/10 12:42:56;;;;;;;8.70;4.97;;;;;;;12.83;52.97;94266.00;4194907;28;20143;-72
2023/11/10 12:44:59;;;;;;;6.63;5.45;;;;;;;12.98;53.07;94260.72;4210261;28;20495;-72
2023/11/10 12:47:06;;;;;;;8.18;5.20;;;;;;;13.08;52.25;94255.97;4207404;28;20048;-72
2023/11/10 12:49:08;;;;;;;9.00;5.10;;;;;;;13.13;51.95;94254.63;4205659;28;20044;-73
2023/11/10 12:51:11;;;;;;;8.27;4.97;;;;;;;13.15;52.32;94249.97;4198428;28;20060;-71
2023/11/10 12:53:18;;;;;;;7.30;4.88;;;;;;;13.18;52.51;94246.97;4210528;28;20139;-72
2023/11/10 12:55:20;;;;;;;8.80;4.78;;;;;;;13.24;51.93;94244.41;4211333;28;20469;-73
2023/11/10 12:57:22;;;;;;;6.60;4.72;;;;;;;13.04;51.56;94243.38;4203720;28;20064;-72
2023/11/10 12:59:30;;;;;;;8.82;5.13;;;;;;;12.89;52.05;94236.34;4207405;28;20056;-72
2023/11/10 13:01:33;;;;;;;9.60;5.47;;;;;;;12.88;52.42;94236.50;4211135;28;20406;-72
2023/11/10 13:03:37;;;;;;;10.63;5.47;;;;;;;12.87;52.89;94237.53;4211247;28;20471;-72
2023/11/10 13:05:39;;;;;;;6.93;5.28;;;;;;;12.84;53.11;94243.97;4208030;28;20060;-73
2023/11/10 13:07:46;;;;;;;10.20;5.15;;;;;;;12.83;52.56;94266.00;4203581;28;20230;-74
2023/11/10 13:09:48;;;;;;;7.68;5.13;;;;;;;12.82;52.69;94267.00;4210258;28;20120;-73
2023/11/10 13:11:50;;;;;;;7.55;5.80;;;;;;;12.66;52.97;94267.19;4206946;28;20076;-72
2023/11/10 13:13:52;;;;;;;10.05;5.40;;;;;;;12.69;53.12;94254.50;4209276;28;20076;-72
2023/11/10 13:15:54;;;;;;;8.18;5.07;;;;;;;12.72;53.10;94247.25;4207815;28;20110;-73
2023/11/10 13:17:57;;;;;;;9.20;5.45;;;;;;;12.74;53.17;94240.81;4205253;28;20082;-72
2023/11/10 13:20:01;;;;;;;9.93;6.32;;;;;;;12.62;53.57;94243.06;4209173;28;20056;-72
2023/11/10 13:22:03;;;;;;;12.73;5.90;;;;;;;12.62;53.45;94245.69;4224288;28;20048;-71
2023/11/10 13:24:06;;;;;;;7.90;6.10;;;;;;;12.72;53.33;94228.84;4206319;28;20044;-72
2023/11/10 13:26:08;;;;;;;10.13;6.17;;;;;;;12.72;53.35;94224.41;4210574;28;20576;-73
2023/11/10 13:28:11;;;;;;;8.18;5.97;;;;;;;12.74;53.30;94232.13;4190638;28;20299;-72
2023/11/10 13:30:14;;;;;;;7.97;5.75;;;;;;;12.74;53.42;94229.50;4208643;28;20537;-71
2023/11/10 13:32:16;;;;;;;10.50;5.85;;;;;;;12.75;53.58;94228.47;4208910;28;20509;-71
2023/11/10 13:34:20;;;;;;;10.88;7.03;;;;;;;12.75;53.88;94224.03;4213455;28;20048;-72
2023/11/10 13:36:22;;;;;;;9.57;6.55;;;;;;;12.73;53.75;94222.59;4213932;28;20094;-72
2023/11/10 13:38:26;;;;;;;9.07;7.10;;;;;;;12.74;53.88;94211.91;4203645;28;20079;-73
2023/11/10 13:40:32;;;;;;;9.60;6.15;;;;;;;12.56;54.07;94212.31;4205367;28;20501;-73
2023/11/10 13:42:34;;;;;;;;;;;;;;;12.47;54.53;94216.81;4212209;28;20056;-74
2023/11/10 13:44:43;;;;;;;9.57;6.78;;;;;;;12.48;54.68;94233.41;4212169;28;20286;-73
2023/11/10 13:46:45;;;;;;;13.73;7.22;;;;;;;12.47;55.36;94232.56;4211530;28;20043;-71
2023/11/10 13:48:50;;;;;;;13.70;7.30;;;;;;;12.47;55.46;94223.88;4211796;28;20059;-73
2023/11/10 13:50:52;;;;;;;9.77;6.90;;;;;;;12.48;55.37;94223.72;4207413;28;20450;-73
2023/11/10 13:52:54;;;;;;;11.07;7.25;;;;;;;12.54;55.19;94223.97;4206205;28;20069;-73
2023/11/10 13:54:58;;;;;;;13.45;6.72;;;;;;;12.52;55.25;94211.03;4201356;28;20060;-72
2023/11/10 13:57:00;;;;;;;14.88;8.10;;;;;;;12.50;55.04;94205.94;4213723;28;20510;-73
2023/11/10 13:59:04;;;;;;;12.75;6.65;;;;;;;12.49;54.95;94206.94;4195809;28;20055;-73
2023/11/10 14:01:08;;;;;;;11.18;7.00;;;;;;;12.48;54.89;94210.56;4208082;28;20071;-72
2023/11/10 14:03:12;;;;;;;11.27;6.38;;;;;;;12.49;54.69;94208.75;4202357;28;20060;-73
2023/11/10 14:05:14;;;;;;;9.35;5.93;;;;;;;12.48;54.53;94220.28;4210214;28;20410;-74
2023/11/10 14:07:16;;;;;;;9.43;6.15;;;;;;;12.47;54.43;94221.25;4205117;28;20043;-73
2023/11/10 14:09:21;;;;;;;10.40;6.97;;;;;;;12.43;54.39;94199.81;4205948;28;20062;-73
2023/11/10 14:11:25;;;;;;;19.05;7.68;;;;;;;12.38;54.89;94198.72;4211045;28;20052;-72
2023/11/10 14:13:27;;;;;;;;;;;;;;;12.29;55.50;94195.38;4210813;28;20044;-73
2023/11/10 14:15:30;;;;;;;18.40;7.78;;;;;;;12.23;55.46;94185.59;4212381;28;19927;-71
2023/11/10 14:17:32;;;;;;;10.70;6.97;;;;;;;12.16;55.79;94203.06;4205233;28;20055;-72
2023/11/10 14:19:38;;;;;;;15.98;6.97;;;;;;;12.16;55.94;94203.06;4208367;28;20056;-72
2023/11/10 14:21:41;;;;;;;12.80;6.90;;;;;;;12.17;55.86;94199.44;4210293;28;20135;-73
2023/11/10 14:23:44;;;;;;;12.02;6.82;;;;;;;12.18;55.95;94196.63;4210640;28;20098;-74
2023/11/10 14:25:47;;;;;;;10.82;7.00;;;;;;;12.19;55.33;94195.63;4210791;28;20040;-73
2023/11/10 14:27:52;;;;;;;13.77;7.45;;;;;;;12.16;55.94;94196.00;4210158;28;20435;-72
2023/11/10 14:29:54;;;;;;;17.88;7.18;;;;;;;12.16;55.94;94197.81;4209527;28;20121;-72
2023/11/10 14:31:58;;;;;;;14.73;7.70;;;;;;;12.15;55.83;94212.75;4208969;28;20136;-72
2023/11/10 14:34:01;;;;;;;11.30;6.90;;;;;;;12.14;55.82;94190.13;4213748;28;20505;-73
2023/11/10 14:36:05;;;;;;;7.53;6.10;;;;;;;12.01;54.90;94193.38;4202257;28;20048;-73
2023/11/10 14:38:12;;;;;;;11.40;6.60;;;;;;;11.95;55.30;94196.72;4204650;28;20128;-73
2023/11/10 14:40:16;;;;;;;6.82;5.22;;;;;;;11.96;55.32;94197.50;4213642;28;20423;-73
2023/11/10 14:42:21;;;;;;;7.40;5.70;;;;;;;11.94;55.02;94210.84;4214100;28;20048;-70
2023/11/10 14:44:23;;;;;;;6.28;4.88;;;;;;;11.95;55.01;94194.09;4213312;28;20044;-73
2023/11/10 14:46:26;;;;;;;7.30;4.82;;;;;;;11.87;55.10;94194.97;4212903;28;20060;-71
2023/11/10 14:48:29;;;;;;;11.55;5.05;;;;;;;11.86;55.13;94209.06;4203607;28;20076;-71
2023/11/10 14:50:36;;;;;;;8.50;4.95;;;;;;;11.87;54.74;94191.50;4213005;28;20087;-72
2023/11/10 14:52:38;;;;;;;7.75;4.50;;;;;;;11.85;54.82;94204.81;4210768;28;20044;-72
2023/11/10 14:54:40;;;;;;;6.55;4.88;;;;;;;11.77;54.84;94199.66;4208400;28;20048;-72
2023/11/10 14:56:42;;;;;;;12.25;5.43;;;;;;;11.68;55.02;94200.72;4204905;28;20446;-72
2023/11/10 14:58:47;;;;;;;9.63;5.25;;;;;;;11.65;55.27;94201.06;4214385;28;20055;-71
2023/11/10 15:00:50;;;;;;;11.82;5.43;;;;;;;11.70;55.30;94209.22;4206499;28;20106;-75
2023/11/10 15:02:56;;;;;;;9.18;5.35;;;;;;;11.70;55.23;94209.22;4206051;28;20048;-72
2023/11/10 15:04:57;;;;;;;7.80;5.38;;;;;;;11.66;55.58;94203.50;4211932;28;20059;-73
2023/11/10 15:07:00;;;;;;;7.72;4.90;;;;;;;11.68;55.41;94191.03;4207035;28;20420;-73
2023/11/10 15:09:06;;;;;;;7.45;4.80;;;;;;;11.58;55.55;94193.09;4206226;28;20544;-73
2023/11/10 15:11:08;;;;;;;9.13;4.95;;;;;;;11.42;55.37;94196.69;4195469;28;20661;-73
2023/11/10 15:13:11;;;;;;;7.18;4.50;;;;;;;11.24;55.81;94196.16;4206265;28;20052;-71
2023/11/10 15:15:15;;;;;;;6.60;4.70;;;;;;;11.21;56.64;94201.75;4208452;28;20055;-72
2023/11/10 15:17:17;;;;;;;6.65;4.50;;;;;;;11.22;56.46;94193.69;4222019;28;20407;-71
2023/11/10 15:19:20;;;;;;;8.05;4.57;;;;;;;11.20;57.00;94190.44;4207298;28;20048;-72
2023/11/10 15:21:22;;;;;;;6.60;4.40;;;;;;;11.21;57.34;94193.91;4208964;28;20044;-73
2023/11/10 15:23:24;;;;;;;5.28;4.78;;;;;;;11.16;57.02;94186.53;4211145;28;20044;-72
2023/11/10 15:25:27;;;;;;;7.00;5.07;;;;;;;11.17;57.08;94169.81;4210985;28;20525;-72
2023/11/10 15:27:29;;;;;;;12.73;4.87;;;;;;;11.25;56.81;94184.69;4211037;28;20075;-71
2023/11/10 15:29:32;;;;;;;6.22;4.80;;;;;;;11.26;57.01;94174.00;4209377;28;20292;-73
2023/11/10 15:31:37;;;;;;;9.10;5.60;;;;;;;11.28;57.03;94168.59;4205820;28;20056;-71
2023/11/10 15:33:39;;;;;;;9.73;5.50;;;;;;;11.34;57.21;94186.25;4211643;28;20044;-73
2023/11/10 15:35:46;;;;;;;6.53;4.90;;;;;;;11.41;57.07;94181.09;4205600;28;20120;-73
2023/11/10 15:37:48;;;;;;;7.53;4.97;;;;;;;11.43;56.22;94187.00;4206721;28;20139;-73
2023/11/10 15:39:51;;;;;;;6.63;4.07;;;;;;;11.45;56.16;94188.44;4207576;28;20055;-73
2023/11/10 15:41:56;;;;;;;7.82;4.78;;;;;;;11.45;56.44;94180.56;4211930;28;20098;-72
2023/11/10 15:43:58;;;;;;;8.18;5.63;;;;;;;11.43;57.03;94177.31;4210462;28;20044;-72
2023/11/10 15:46:00;;;;;;;7.78;4.80;;;;;;;11.43;56.53;94187.81;4212456;28;20140;-72
2023/11/10 15:48:05;;;;;;;9.75;4.82;;;;;;;11.45;56.42;94183.19;4213121;28;20040;-73
2023/11/10 15:50:08;;;;;;;6.63;4.60;;;;;;;11.47;56.19;94178.59;4208779;28;20474;-73
2023/11/10 15:52:10;;;;;;;6.40;4.78;;;;;;;11.51;56.03;94178.22;4204604;28;20040;-71
2023/11/10 15:54:13;;;;;;;10.20;5.43;;;;;;;11.54;56.24;94178.69;4201239;28;20043;-73
2023/11/10 15:56:16;;;;;;;8.10;5.00;;;;;;;11.48;55.63;94174.16;4205908;28;20058;-70
2023/11/10 15:58:19;;;;;;;7.30;5.25;;;;;;;11.45;55.83;94180.56;4202113;28;20549;-73
2023/11/10 16:00:21;;;;;;;5.83;4.80;;;;;;;11.16;55.81;94170.00;4203604;28;20058;-73
2023/11/10 16:02:26;;;;;;;8.02;5.53;;;;;;;11.02;56.41;94184.69;4207143;28;20787;-71
2023/11/10 16:04:28;;;;;;;11.77;5.78;;;;;;;11.03;56.71;94183.69;4207953;28;20453;-71
2023/11/10 16:06:32;;;;;;;6.68;5.80;;;;;;;11.06;56.58;94183.34;4201430;28;20084;-72
2023/11/10 16:08:34;;;;;;;9.57;6.70;;;;;;;10.91;56.94;94180.66;4210219;28;20056;-72
2023/11/10 16:10:38;;;;;;;9.43;6.50;;;;;;;10.91;56.93;94164.94;4210734;28;20078;-72
2023/11/10 16:12:39;;;;;;;7.82;6.53;;;;;;;10.97;57.21;94171.25;4212256;28;20553;-72
2023/11/10 16:14:45;;;;;;;7.18;5.25;;;;;;;10.96;56.71;94161.78;4200478;28;20048;-71
2023/11/10 16:16:49;;;;;;;9.00;6.40;;;;;;;11.00;56.86;94170.94;4209089;28;20634;-71
2023/11/10 16:18:51;;;;;;;9.93;7.88;;;;;;;11.05;57.40;94164.16;4209755;28;20878;-72
2023/11/10 16:20:54;;;;;;;14.35;8.70;;;;;;;10.71;57.88;94167.19;4203781;28;20138;-72
2023/11/10 16:22:56;;;;;;;13.38;8.60;;;;;;;10.68;58.32;94180.63;4211166;28;20059;-72
2023/11/10 16:24:58;;;;;;;13.73;9.32;;;;;;;10.60;59.01;94184.13;4201140;28;20055;-72
2023/11/10 16:27:01;;;;;;;18.08;11.45;;;;;;;10.50;59.21;94172.22;4212283;28;20101;-71
2023/11/10 16:29:05;;;;;;;12.55;8.95;;;;;;;10.42;59.83;94178.28;4217543;28;20075;-73
2023/11/10 16:31:07;;;;;;;13.73;9.50;;;;;;;10.50;59.77;94188.75;4208211;28;21244;-71
2023/11/10 16:33:10;;;;;;;13.43;9.32;;;;;;;10.63;60.12;94186.38;4212136;28;20044;-71
2023/11/10 16:35:13;;;;;;;12.07;7.65;;;;;;;10.70;59.41;94176.03;4205639;28;20048;-71
2023/11/10 16:37:15;;;;;;;10.65;8.23;;;;;;;10.79;58.70;94184.66;4211468;28;20052;-71
2023/11/10 16:39:18;;;;;;;10.82;7.45;;;;;;;10.91;58.87;94183.28;4209993;28;20113;-74
2023/11/10 16:41:25;;;;;;;9.10;6.35;;;;;;;10.87;57.48;94187.22;4210092;28;20423;-73
2023/11/10 16:43:28;;;;;;;11.38;6.53;;;;;;;10.88;58.06;94191.47;4208308;28;20040;-72
2023/11/10 16:45:32;;;;;;;10.60;6.93;;;;;;;10.95;58.19;94181.09;4205962;28;20052;-73
2023/11/10 16:47:38;;;;;;;13.93;7.35;;;;;;;10.97;58.67;94181.75;4211369;28;20109;-71
2023/11/10 16:49:41;;;;;;;9.25;6.22;;;;;;;10.95;57.87;94181.94;4209849;28;20047;-72
2023/11/10 16:51:44;;;;;;;9.70;6.43;;;;;;;10.96;58.40;94185.38;4217136;28;20047;-72
2023/11/10 16:53:47;;;;;;;9.90;6.18;;;;;;;10.98;58.21;94183.41;4211129;28;20581;-70
2023/11/10 16:55:49;;;;;;;12.18;5.57;;;;;;;11.03;57.84;94181.91;4208885;28;20087;-72
2023/11/10 16:57:50;;;;;;;7.70;5.60;;;;;;;11.05;58.00;94173.84;4214849;28;20051;-72
2023/11/10 16:59:55;;;;;;;8.65;6.45;;;;;;;11.04;58.21;94180.88;4206727;28;20048;-73
2023/11/10 17:01:57;;;;;;;6.80;5.60;;;;;;;11.08;58.66;94176.13;4208438;28;20453;-72
2023/11/10 17:04:02;;;;;;;10.90;6.68;;;;;;;11.09;58.69;94171.69;4222026;28;20476;-73
2023/11/10 17:06:06;;;;;;;9.70;5.82;;;;;;;11.10;59.00;94178.53;4205669;28;20059;-72
2023/11/10 17:08:07;;;;;;;9.95;5.95;;;;;;;11.15;59.15;94179.66;4211951;28;20082;-73
2023/11/10 17:10:10;;;;;;;8.85;6.10;;;;;;;11.15;59.40;94184.09;4205200;28;20048;-73
2023/11/10 17:12:13;;;;;;;7.85;5.88;;;;;;;11.14;59.22;94177.22;4215043;28;20055;-73
2023/11/10 17:14:15;;;;;;;11.45;5.90;;;;;;;11.13;59.41;94180.84;4206647;28;20054;-72
2023/11/10 17:16:17;;;;;;;10.23;7.38;;;;;;;11.14;59.69;94177.22;4213181;28;20143;-72
2023/11/10 17:18:19;;;;;;;9.15;6.90;;;;;;;11.12;60.08;94174.78;4213051;28;20131;-71
2023/11/10 17:20:24;;;;;;;8.00;6.55;;;;;;;11.15;60.29;94171.81;4212846;28;20052;-70
2023/11/10 17:22:26;;;;;;;14.15;7.10;;;;;;;11.18;60.08;94168.81;4213859;28;20045;-73
2023/11/10 17:24:27;;;;;;;8.93;6.63;;;;;;;11.11;59.73;94167.09;4211560;28;20109;-70
2023/11/10 17:26:29;;;;;;;10.88;6.28;;;;;;;11.04;59.57;94167.78;4214205;28;20047;-71
2023/11/10 17:28:31;;;;;;;8.10;6.10;;;;;;;11.02;59.71;94166.34;4214499;28;20052;-71
2023/11/10 17:30:33;;;;;;;8.88;6.22;;;;;;;11.05;59.54;94169.41;4211939;28;20079;-72
2023/11/10 17:32:35;;;;;;;12.07;6.32;;;;;;;10.99;60.18;94156.19;4199308;28;20090;-73
2023/11/10 17:34:37;;;;;;;11.65;6.70;;;;;;;10.93;60.02;94160.34;4214412;28;20506;-72
2023/11/10 17:36:39;;;;;;;11.07;7.82;;;;;;;10.88;59.74;94162.63;4206129;28;20121;-72
2023/11/10 17:38:41;;;;;;;10.95;7.22;;;;;;;10.85;60.41;94161.19;4207442;28;20418;-73
2023/11/10 17:40:43;;;;;;;10.35;7.07;;;;;;;10.85;60.53;94163.00;4203849;28;20053;-72
2023/11/10 17:42:45;;;;;;;20.42;8.30;;;;;;;10.89;60.20;94166.09;4211966;28;20131;-71
2023/11/10 17:44:48;;;;;;;11.35;8.23;;;;;;;10.92;60.16;94158.69;4206315;28;20414;-71
2023/11/10 17:46:50;;;;;;;15.90;9.35;;;;;;;10.96;60.46;94153.91;4201713;28;20438;-72
2023/11/10 17:48:52;;;;;;;15.05;8.90;;;;;;;10.98;60.34;94138.84;4202585;28;20452;-73
2023/11/10 17:51:06;;;;;;;14.68;7.88;;;;;;;10.97;59.90;94132.78;4207422;28;20048;-70
2023/11/10 17:53:09;;;;;;;13.70;7.57;;;;;;;10.95;59.83;94136.56;4209547;28;20078;-71
2023/11/10 17:55:12;;;;;;;14.68;8.27;;;;;;;10.94;60.15;94135.75;4220464;28;20092;-72
2023/11/10 17:57:14;;;;;;;13.13;8.10;;;;;;;10.91;59.79;94136.09;4212184;28;20093;-72
2023/11/10 17:59:16;;;;;;;13.80;9.10;;;;;;;10.94;59.96;94138.38;4209991;28;20052;-73
2023/11/10 18:01:19;;;;;;;16.77;10.13;;;;;;;10.94;59.79;94113.97;4202071;28;20079;-71
2023/11/10 18:03:21;;;;;;;16.27;9.60;;;;;;;10.98;60.17;94112.63;4202491;28;20118;-73
2023/11/10 18:05:25;;;;;;;13.90;8.63;;;;;;;10.95;59.50;94120.81;4199191;28;20273;-71
2023/11/10 18:07:28;;;;;;;11.18;7.78;;;;;;;10.89;59.89;94117.13;4201292;28;20048;-72
2023/11/10 18:09:30;;;;;;;13.23;8.98;;;;;;;10.64;60.08;94112.03;4206209;28;20063;-73
2023/11/10 18:11:34;;;;;;;18.00;10.43;;;;;;;10.51;61.16;94124.88;4209284;28;20055;-72
2023/11/10 18:13:37;;;;;;;;;;;;;;;10.42;61.64;94125.94;4212888;28;20051;-72
2023/11/10 18:15:40;;;;;;;13.13;9.43;;;;;;;10.44;61.67;94130.00;4200435;28;20362;-71
2023/11/10 18:17:43;;;;;;;14.15;10.18;;;;;;;10.45;61.88;94141.28;4206137;28;20044;-71
2023/11/10 18:19:45;;;;;;;20.92;11.57;;;;;;;10.40;62.13;94141.81;4211441;28;20101;-72
2023/11/10 18:21:47;;;;;;;19.75;10.18;;;;;;;10.38;62.44;94133.31;4199833;28;20477;-72
2023/11/10 18:23:49;;;;;;;19.23;11.50;;;;;;;10.36;62.33;94126.63;4211768;28;20059;-72
2023/11/10 18:25:51;;;;;;;15.38;11.35;;;;;;;10.40;62.55;94128.72;4204269;28;20036;-71
2023/11/10 18:27:54;;;;;;;17.58;11.18;;;;;;;10.38;63.15;94104.50;4214326;28;20394;-71
2023/11/10 18:29:58;;;;;;;13.60;10.00;;;;;;;10.33;62.73;94126.97;4206598;28;20087;-72
2023/11/10 18:32:00;;;;;;;23.52;16.42;;;;;;;10.40;63.21;94139.19;4200789;28;20106;-71
2023/11/10 18:34:02;;;;;;;18.58;13.00;;;;;;;10.04;63.36;94089.94;4192705;28;20052;-72
2023/11/10 18:36:06;;;;;;;15.35;10.93;;;;;;;9.93;64.24;94107.78;4204184;28;20083;-72
2023/11/10 18:38:08;;;;;;;17.80;11.45;;;;;;;9.95;64.74;94105.81;4205755;28;20049;-72
2023/11/10 18:40:12;;;;;;;22.10;12.27;;;;;;;10.06;64.83;94110.69;4212505;28;20706;-71
2023/11/10 18:42:15;;;;;;;14.27;11.73;;;;;;;10.00;64.32;94111.34;4214074;28;20048;-71
2023/11/10 18:44:18;;;;;;;21.83;14.50;;;;;;;9.75;65.26;94118.50;4206472;28;20091;-72
2023/11/10 18:46:20;;;;;;;26.60;16.88;;;;;;;9.77;65.10;94106.06;4209277;28;20048;-72
2023/11/10 18:48:22;;;;;;;27.38;16.52;;;;;;;9.76;65.29;94123.53;4209737;28;20040;-71
2023/11/10 18:50:24;;;;;;;24.08;15.13;;;;;;;9.74;65.99;94112.41;4211786;28;20074;-71
2023/11/10 18:52:26;;;;;;;23.85;14.57;;;;;;;9.64;66.46;94109.22;4201810;28;20048;-70
2023/11/10 18:54:28;;;;;;;18.85;12.82;;;;;;;9.75;66.47;94113.25;4212854;28;20044;-70
2023/11/10 18:56:32;;;;;;;;;;;;;;;9.55;66.73;94081.44;4209819;28;20102;-72
2023/11/10 18:58:37;;;;;;;20.98;13.73;;;;;;;9.56;67.11;94085.69;4210569;28;20015;-71
2023/11/10 19:00:39;;;;;;;18.65;14.00;;;;;;;9.70;67.53;94079.78;4203895;28;20465;-75
2023/11/10 19:02:42;;;;;;;19.95;13.80;;;;;;;9.83;66.99;94072.19;4210990;28;20147;-73
2023/11/10 19:04:44;;;;;;;19.33;13.70;;;;;;;9.95;66.16;94100.59;4204371;28;20044;-72
2023/11/10 19:06:47;;;;;;;26.67;15.32;;;;;;;10.07;66.06;94095.78;4212104;28;20087;-72
2023/11/10 19:08:48;;;;;;;32.58;18.55;;;;;;;10.19;65.38;94105.72;4200758;28;20080;-71
2023/11/10 19:10:51;;;;;;;27.70;16.70;;;;;;;10.28;65.54;94103.06;4213091;28;20058;-73
2023/11/10 19:12:53;;;;;;;23.88;16.70;;;;;;;10.31;64.89;94110.63;4213107;28;20048;-72
2023/11/10 19:14:55;;;;;;;26.63;17.83;;;;;;;10.35;65.00;94086.53;4199320;28;20479;-72
2023/11/10 19:16:57;;;;;;;28.05;17.20;;;;;;;10.37;65.34;94084.56;4217487;28;20661;-71
2023/11/10 19:18:59;;;;;;;21.15;15.80;;;;;;;10.40;65.18;94086.81;4205979;28;20045;-72
2023/11/10 19:21:01;;;;;;;25.38;17.45;;;;;;;10.39;64.98;94092.22;4208576;28;20055;-71
2023/11/10 19:23:03;;;;;;;23.02;17.83;;;;;;;10.32;65.79;94088.66;4202236;28;20541;-71
2023/11/10 19:25:06;;;;;;;29.42;18.50;;;;;;;9.81;67.11;94089.84;4212305;28;20048;-72
2023/11/10 19:27:09;;;;;;;29.42;20.80;;;;;;;9.57;68.72;94105.59;4211357;28;20071;-71
2023/11/10 19:29:12;;;;;;;29.63;19.65;;;;;;;9.67;68.92;94087.13;4228418;28;20536;-70
2023/11/10 19:31:18;;;;;;;36.88;20.67;;;;;;;9.70;68.84;94060.63;4208757;28;20101;-71
2023/11/10 19:33:21;;;;;;;27.23;18.67;;;;;;;9.77;68.48;94041.47;4211683;28;20525;-73
2023/11/10 19:35:24;;;;;;;24.38;18.30;;;;;;;9.93;67.88;94050.22;4209614;28;20475;-72
2023/11/10 19:37:26;;;;;;;24.08;18.13;;;;;;;9.99;67.97;94041.69;4212450;28;20540;-70
2023/11/10 19:39:29;;;;;;;27.83;18.00;;;;;;;10.03;68.19;94022.88;4204991;28;20097;-73
2023/11/10 19:41:31;;;;;;;24.02;16.83;;;;;;;10.04;67.79;94031.53;4210299;28;20083;-72
2023/11/10 19:43:33;;;;;;;23.27;16.55;;;;;;;10.09;67.81;94046.72;4208312;28;20048;-70
2023/11/10 19:45:36;;;;;;;24.25;17.25;;;;;;;10.16;67.45;94048.47;4206073;28;20055;-73
2023/11/10 19:47:38;;;;;;;29.73;19.02;;;;;;;10.22;67.37;94044.38;4202024;28;20140;-72
2023/11/10 19:49:43;;;;;;;27.98;19.25;;;;;;;10.26;67.29;94053.50;4210816;28;20064;-72
2023/11/10 19:51:55;;;;;;;33.65;20.00;;;;;;;10.32;66.66;94038.94;4210104;28;20059;-71
2023/11/10 19:54:02;;;;;;;32.95;19.02;;;;;;;10.17;67.23;94017.88;4211555;28;20048;-72
2023/11/10 19:56:07;;;;;;;29.02;19.52;;;;;;;10.14;67.45;94021.66;4207172;28;20058;-71
2023/11/10 19:58:09;;;;;;;27.30;17.90;;;;;;;10.16;67.22;94030.16;4199639;28;20499;-71
2023/11/10 20:00:15;;;;;;;28.90;18.77;;;;;;;10.20;67.17;94022.78;4204547;28;20475;-73
2023/11/10 20:02:20;;;;;;;25.02;18.55;;;;;;;10.17;67.13;94034.38;4204970;28;20048;-70
2023/11/10 20:04:23;;;;;;;32.28;19.50;;;;;;;10.17;67.34;94016.06;4206072;28;20048;-71
2023/11/10 20:06:25;;;;;;;27.17;18.67;;;;;;;10.19;67.65;94026.38;4208713;28;20131;-71
2023/11/10 20:08:26;;;;;;;31.90;19.17;;;;;;;10.18;67.49;94038.66;4212588;28;20586;-72
2023/11/10 20:10:29;;;;;;;31.35;19.00;;;;;;;10.15;67.02;94025.09;4209811;28;20736;-70
2023/11/10 20:12:31;;;;;;;25.83;18.88;;;;;;;10.05;66.99;94002.56;4210775;28;20518;-72
2023/11/10 20:14:33;;;;;;;26.33;19.70;;;;;;;9.69;68.42;94004.88;4202899;28;20513;-72
2023/11/10 20:16:36;;;;;;;24.27;18.75;;;;;;;9.75;68.67;94011.25;4206904;28;20063;-70
2023/11/10 20:18:40;;;;;;;23.77;17.77;;;;;;;9.83;68.35;94019.06;4209083;28;20050;-69
2023/11/10 20:20:42;;;;;;;26.05;19.08;;;;;;;9.92;68.49;94006.75;4192013;28;20059;-71
2023/11/10 20:22:44;;;;;;;25.67;18.88;;;;;;;9.96;67.77;94008.00;4212659;28;20127;-72
2023/11/10 20:24:46;;;;;;;25.60;19.13;;;;;;;10.01;68.25;94005.72;4206524;28;20422;-70
2023/11/10 20:26:50;;;;;;;28.08;18.63;;;;;;;10.07;67.85;94006.81;4211802;28;20052;-71
2023/11/10 20:28:53;;;;;;;28.65;20.00;;;;;;;10.02;67.70;94005.56;4211510;28;20383;-70
2023/11/10 20:30:56;;;;;;;30.08;19.88;;;;;;;10.07;68.00;93993.72;4211703;28;20457;-71
2023/11/10 20:33:00;;;;;;;28.92;19.65;;;;;;;10.10;67.88;94001.25;4210020;28;20430;-72
2023/11/10 20:35:02;;;;;;;23.58;19.77;;;;;;;10.11;67.15;93988.00;4193616;28;20434;-71
2023/11/10 20:37:05;;;;;;;28.63;20.17;;;;;;;10.00;67.86;93991.81;4211505;28;20067;-71
2023/11/10 20:39:09;;;;;;;28.70;19.35;;;;;;;10.00;68.26;93991.00;4199516;28;20060;-70
2023/11/10 20:41:11;;;;;;;;;;;;;;;9.99;68.27;93976.28;4221549;28;20478;-71
2023/11/10 20:43:13;;;;;;;26.52;19.17;;;;;;;9.98;67.79;93988.56;4211758;28;19981;-71
2023/11/10 20:45:18;;;;;;;26.88;19.98;;;;;;;9.73;68.57;93980.03;4212261;28;20046;-72
2023/11/10 20:47:21;;;;;;;30.73;20.35;;;;;;;9.63;69.14;93995.09;4208539;28;20071;-71
2023/11/10 20:49:22;;;;;;;27.13;19.60;;;;;;;9.69;69.42;93981.34;4204436;28;20490;-72
2023/11/10 20:51:24;;;;;;;28.60;20.27;;;;;;;9.53;69.64;93968.34;4207277;28;20135;-71
2023/11/10 20:53:27;;;;;;;28.45;20.63;;;;;;;9.35;70.33;93974.63;4211545;28;20086;-72
2023/11/10 20:55:30;;;;;;;28.85;19.35;;;;;;;9.43;71.37;93966.75;4201969;28;20051;-72
2023/11/10 20:57:32;;;;;;;27.65;20.48;;;;;;;9.58;70.52;93968.66;4210194;28;20051;-71
2023/11/10 20:59:34;;;;;;;30.80;23.48;;;;;;;9.70;70.42;93953.38;4204655;28;20111;-72
2023/11/10 21:01:36;;;;;;;28.00;20.88;;;;;;;9.76;69.86;93948.28;4207569;28;20499;-71
2023/11/10 21:03:39;;;;;;;26.85;20.58;;;;;;;9.80;69.61;93951.38;4211692;28;20075;-71
2023/11/10 21:05:46;;;;;;;28.20;19.27;;;;;;;9.87;69.25;93938.41;4209625;28;20078;-72
2023/11/10 21:07:48;;;;;;;29.42;21.35;;;;;;;9.89;69.55;93929.41;4204046;28;20063;-70
2023/11/10 21:09:51;;;;;;;27.83;19.85;;;;;;;9.92;69.20;93926.47;4208770;28;20063;-71
2023/11/10 21:11:54;;;;;;;28.83;18.58;;;;;;;9.94;69.17;93937.56;4210744;28;20040;-72
2023/11/10 21:13:55;;;;;;;24.30;19.13;;;;;;;9.88;68.94;93930.41;4208496;28;20056;-73
2023/11/10 21:15:58;;;;;;;26.92;19.75;;;;;;;9.69;70.03;93921.19;4205953;28;20052;-71
2023/11/10 21:18:04;;;;;;;28.35;19.50;;;;;;;9.32;71.28;93903.59;4204074;28;20170;-70
2023/11/10 21:20:08;;;;;;;29.30;20.20;;;;;;;9.33;71.73;93920.91;4210766;28;20105;-71
2023/11/10 21:22:10;;;;;;;30.20;20.75;;;;;;;9.42;71.67;93910.25;4208274;28;20049;-72
2023/11/10 21:24:12;;;;;;;28.23;21.30;;;;;;;9.51;70.98;93920.66;4209415;28;20051;-70
2023/11/10 21:26:19;;;;;;;25.77;20.13;;;;;;;9.57;70.84;93918.19;4227237;28;20151;-69
2023/11/10 21:28:21;;;;;;;28.48;20.75;;;;;;;9.66;70.48;93931.19;4211345;28;20568;-70
2023/11/10 21:30:25;;;;;;;26.52;20.63;;;;;;;9.70;70.38;93924.63;4210123;28;20056;-71
2023/11/10 21:32:27;;;;;;;25.17;21.33;;;;;;;9.78;70.03;93927.19;4205978;28;20105;-71
2023/11/10 21:34:30;;;;;;;29.55;21.30;;;;;;;9.80;69.61;93930.44;4211264;28;20048;-71
2023/11/10 21:36:31;;;;;;;31.63;20.90;;;;;;;9.78;69.80;93922.78;4201971;28;20037;-70
2023/11/10 21:38:35;;;;;;;22.75;18.30;;;;;;;9.81;69.56;93935.53;4194057;28;20090;-71
2023/11/10 21:40:39;;;;;;;27.23;21.20;;;;;;;9.60;69.95;93917.00;4204973;28;20521;-71
2023/11/10 21:42:41;;;;;;;27.05;19.80;;;;;;;9.08;71.84;93894.03;4211845;28;20044;-71
2023/11/10 21:44:43;;;;;;;27.77;21.40;;;;;;;9.10;72.49;93929.50;4211780;28;20131;-71
2023/11/10 21:46:45;;;;;;;23.17;19.33;;;;;;;9.27;72.69;93929.41;4207324;28;20048;-70
2023/11/10 21:48:47;;;;;;;30.77;19.23;;;;;;;9.09;71.76;93890.47;4211836;28;20677;-72
2023/11/10 21:50:49;;;;;;;26.45;19.63;;;;;;;9.02;72.61;93908.63;4212523;28;20054;-70
2023/11/10 21:52:51;;;;;;;27.10;20.95;;;;;;;9.12;72.90;93916.22;4204815;28;20056;-70
2023/11/10 21:54:54;;;;;;;30.83;21.30;;;;;;;9.16;72.39;93880.94;4201648;28;20046;-71
2023/11/10 21:56:56;;;;;;;;;;;;;;;9.04;72.97;93879.72;4222055;28;20043;-71
2023/11/10 21:58:59;;;;;;;28.70;20.48;;;;;;;9.16;73.39;93905.31;4213035;28;19967;-71
2023/11/10 22:01:01;;;;;;;26.02;19.77;;;;;;;9.23;73.22;93887.94;4195712;28;20071;-70
2023/11/10 22:03:03;;;;;;;26.88;20.63;;;;;;;9.26;73.71;93899.84;4210705;28;20197;-71
2023/11/10 22:05:07;;;;;;;26.02;17.65;;;;;;;9.36;73.57;93899.66;4205269;28;20044;-71